createdAt,value
2016-10-10T03:00:40.881Z,1025.44
2016-10-10T03:01:06.424Z,1025.46
2016-10-10T03:01:32.308Z,1025.44
2016-10-10T03:02:35.168Z,1025.42
2016-10-10T03:03:00.742Z,1025.44
2016-10-10T03:03:26.372Z,1025.39
2016-10-10T03:03:51.929Z,1025.39
2016-10-10T03:04:17.857Z,1025.41
2016-10-10T03:04:43.422Z,1025.41
2016-10-10T03:05:08.985Z,1025.39
2016-10-10T03:05:35.212Z,1025.41
2016-10-10T03:06:00.769Z,1025.46
2016-10-10T03:06:27.038Z,1025.41
2016-10-10T03:06:52.581Z,1025.4
2016-10-10T03:07:18.167Z,1025.42
2016-10-10T03:07:44.468Z,1025.41
2016-10-10T03:08:10.027Z,1025.44
2016-10-10T03:08:36.172Z,1025.44
2016-10-10T03:09:01.777Z,1025.42
2016-10-10T03:09:27.919Z,1025.41
2016-10-10T03:09:53.480Z,1025.42
2016-10-10T03:10:19.039Z,1025.42
2016-10-10T03:10:45.321Z,1025.42
2016-10-10T03:11:10.892Z,1025.46
2016-10-10T03:11:37.090Z,1025.44
2016-10-10T03:12:02.657Z,1025.39
2016-10-10T03:12:28.196Z,1025.45
2016-10-10T03:12:54.434Z,1025.41
2016-10-10T03:13:19.977Z,1025.4
2016-10-10T03:13:46.293Z,1025.46
2016-10-10T03:14:11.900Z,1025.45
2016-10-10T03:14:38.009Z,1025.43
2016-10-10T03:15:03.590Z,1025.44
2016-10-10T03:15:29.134Z,1025.46
2016-10-10T03:15:55.358Z,1025.4
2016-10-10T03:16:20.930Z,1025.49
2016-10-10T03:16:47.173Z,1025.45
2016-10-10T03:17:12.746Z,1025.45
2016-10-10T03:17:38.462Z,1025.42
2016-10-10T03:18:04.504Z,1025.42
2016-10-10T03:18:30.081Z,1025.43
2016-10-10T03:21:14.871Z,1025.41
2016-10-10T03:21:40.427Z,1025.41
2016-10-10T03:22:05.961Z,1025.41
2016-10-10T03:22:31.508Z,1025.39
2016-10-10T03:22:57.096Z,1025.41
2016-10-10T03:23:22.696Z,1025.43
2016-10-10T03:23:48.239Z,1025.44
2016-10-10T03:24:13.765Z,1025.44
2016-10-10T03:24:39.412Z,1025.44
2016-10-10T03:25:04.945Z,1025.44
2016-10-10T03:25:30.502Z,1025.46
2016-10-10T03:25:56.020Z,1025.44
2016-10-10T03:26:21.585Z,1025.45
2016-10-10T03:26:47.124Z,1025.44
2016-10-10T03:27:12.672Z,1025.44
2016-10-10T03:27:38.239Z,1025.44
2016-10-10T03:28:03.840Z,1025.47
2016-10-10T03:28:29.394Z,1025.46
2016-10-10T03:28:54.963Z,1025.44
2016-10-10T03:29:20.505Z,1025.43
2016-10-10T03:29:46.038Z,1025.43
2016-10-10T03:30:11.576Z,1025.44
2016-10-10T03:30:37.094Z,1025.39
2016-10-10T03:31:02.621Z,1025.44
2016-10-10T03:31:28.169Z,1025.47
2016-10-10T03:31:53.719Z,1025.42
2016-10-10T03:32:19.350Z,1025.42
2016-10-10T03:32:44.878Z,1025.42
2016-10-10T03:33:10.409Z,1025.43
2016-10-10T03:33:35.937Z,1025.41
2016-10-10T03:34:01.475Z,1025.41
2016-10-10T03:34:27.011Z,1025.44
2016-10-10T03:34:52.571Z,1025.43
2016-10-10T03:35:18.107Z,1025.47
2016-10-10T03:35:43.736Z,1025.46
2016-10-10T03:36:09.240Z,1025.44
2016-10-10T03:36:34.789Z,1025.44
2016-10-10T03:37:00.353Z,1025.42
2016-10-10T03:37:25.934Z,1025.41
2016-10-10T03:37:51.583Z,1025.41
2016-10-10T03:38:17.153Z,1025.43
2016-10-10T03:38:42.682Z,1025.41
2016-10-10T03:39:08.236Z,1025.44
2016-10-10T03:39:33.776Z,1025.39
2016-10-10T03:39:59.338Z,1025.43
2016-10-10T03:40:24.893Z,1025.37
2016-10-10T03:40:50.454Z,1025.4
2016-10-10T03:41:16.015Z,1025.37
2016-10-10T03:41:41.568Z,1025.36
2016-10-10T03:42:07.174Z,1025.38
2016-10-10T03:42:32.708Z,1025.37
2016-10-10T03:42:58.403Z,1025.39
2016-10-10T03:43:24.006Z,1025.34
2016-10-10T03:43:49.548Z,1025.4
2016-10-10T03:44:15.129Z,1025.37
2016-10-10T03:44:40.680Z,1025.38
2016-10-10T03:45:06.219Z,1025.38
2016-10-10T03:45:31.775Z,1025.38
2016-10-10T03:45:57.317Z,1025.41
2016-10-10T03:46:22.844Z,1025.41
2016-10-10T03:46:48.390Z,1025.4
2016-10-10T03:47:13.920Z,1025.34
2016-10-10T03:47:39.511Z,1025.37
2016-10-10T03:48:05.056Z,1025.39
2016-10-10T03:48:30.596Z,1025.36
2016-10-10T03:48:56.134Z,1025.38
2016-10-10T03:49:21.688Z,1025.41
2016-10-10T03:49:47.254Z,1025.35
2016-10-10T03:50:12.824Z,1025.34
2016-10-10T03:50:38.385Z,1025.35
2016-10-10T03:51:03.937Z,1025.33
2016-10-10T03:51:29.509Z,1025.36
2016-10-10T03:51:55.278Z,1025.35
2016-10-10T03:52:20.880Z,1025.35
2016-10-10T03:52:46.447Z,1025.34
2016-10-10T03:53:12.003Z,1025.33
2016-10-10T03:53:37.591Z,1025.33
2016-10-10T03:54:03.130Z,1025.36
2016-10-10T03:54:28.691Z,1025.34
2016-10-10T03:54:54.245Z,1025.33
2016-10-10T03:55:19.800Z,1025.34
2016-10-10T03:55:45.355Z,1025.35
2016-10-10T03:56:10.936Z,1025.32
2016-10-10T03:56:36.479Z,1025.31
2016-10-10T03:57:02.035Z,1025.36
2016-10-10T03:57:27.575Z,1025.32
2016-10-10T03:57:53.139Z,1025.29
2016-10-10T03:58:18.768Z,1025.29
2016-10-10T03:58:44.318Z,1025.32
2016-10-10T03:59:09.896Z,1025.32
2016-10-10T03:59:35.471Z,1025.28
2016-10-10T04:00:01.067Z,1025.3
2016-10-10T04:00:26.630Z,1025.33
2016-10-10T04:00:52.206Z,1025.3
2016-10-10T04:01:17.730Z,1025.32
2016-10-10T04:01:43.304Z,1025.33
2016-10-10T04:02:08.871Z,1025.29
2016-10-10T04:02:34.448Z,1025.29
2016-10-10T04:02:59.933Z,1025.32
2016-10-10T04:03:25.586Z,1025.29
2016-10-10T04:03:51.184Z,1025.26
2016-10-10T04:04:16.715Z,1025.26
2016-10-10T04:04:42.337Z,1025.28
2016-10-10T04:05:07.976Z,1025.29
2016-10-10T04:05:33.533Z,1025.29
2016-10-10T04:05:59.095Z,1025.29
2016-10-10T04:06:24.768Z,1025.29
2016-10-10T04:06:50.317Z,1025.29
2016-10-10T04:07:15.880Z,1025.31
2016-10-10T04:07:41.457Z,1025.29
2016-10-10T04:08:07.018Z,1025.32
2016-10-10T04:08:32.577Z,1025.36
2016-10-10T04:09:46.133Z,1025.3
2016-10-10T04:10:11.669Z,1025.3
2016-10-10T04:10:37.228Z,1025.33
2016-10-10T04:11:02.824Z,1025.36
2016-10-10T04:11:28.359Z,1025.31
2016-10-10T04:11:53.954Z,1025.34
2016-10-10T04:12:19.582Z,1025.35
2016-10-10T04:12:45.184Z,1025.29
2016-10-10T04:13:10.750Z,1025.33
2016-10-10T04:13:36.373Z,1025.34
2016-10-10T04:14:01.981Z,1025.34
2016-10-10T04:14:27.533Z,1025.35
2016-10-10T04:14:53.102Z,1025.37
2016-10-10T04:16:11.823Z,1025.39
2016-10-10T04:16:37.366Z,1025.39
2016-10-10T04:17:02.939Z,1025.41
2016-10-10T04:17:28.480Z,1025.43
2016-10-10T04:17:54.094Z,1025.4
2016-10-10T04:18:19.664Z,1025.39
2016-10-10T04:18:45.319Z,1025.4
2016-10-10T04:19:10.884Z,1025.44
2016-10-10T04:19:36.411Z,1025.4
2016-10-10T04:20:34.518Z,1025.37
2016-10-10T04:21:00.080Z,1025.39
2016-10-10T04:21:25.730Z,1025.36
2016-10-10T04:21:51.297Z,1025.35
2016-10-10T04:22:16.850Z,1025.35
2016-10-10T04:22:42.402Z,1025.38
2016-10-10T04:23:07.949Z,1025.37
2016-10-10T04:23:33.541Z,1025.35
2016-10-10T04:23:59.122Z,1025.37
2016-10-10T04:24:24.701Z,1025.39
2016-10-10T04:24:50.302Z,1025.44
2016-10-10T04:25:15.928Z,1025.42
2016-10-10T04:25:41.482Z,1025.43
2016-10-10T04:26:07.029Z,1025.45
2016-10-10T04:26:32.578Z,1025.48
2016-10-10T04:26:58.133Z,1025.47
2016-10-10T04:27:23.669Z,1025.45
2016-10-10T04:27:49.247Z,1025.43
2016-10-10T04:28:14.785Z,1025.42
2016-10-10T04:28:40.338Z,1025.41
2016-10-10T04:29:05.882Z,1025.42
2016-10-10T04:30:24.637Z,1025.49
2016-10-10T04:30:50.204Z,1025.43
2016-10-10T04:31:15.771Z,1025.45
2016-10-10T04:31:41.333Z,1025.45
2016-10-10T04:32:06.880Z,1025.44
2016-10-10T04:32:32.587Z,1025.41
2016-10-10T04:32:58.875Z,1025.44
2016-10-10T04:33:23.663Z,1025.42
2016-10-10T04:33:49.216Z,1025.44
2016-10-10T04:34:14.799Z,1025.41
2016-10-10T04:34:40.359Z,1025.44
2016-10-10T04:35:05.919Z,1025.44
2016-10-10T04:35:31.485Z,1025.47
2016-10-10T04:35:57.090Z,1025.48
2016-10-10T04:36:22.660Z,1025.41
2016-10-10T04:36:48.212Z,1025.42
2016-10-10T04:37:13.800Z,1025.44
2016-10-10T04:37:39.380Z,1025.49
2016-10-10T04:38:04.959Z,1025.48
2016-10-10T04:38:30.528Z,1025.47
2016-10-10T04:38:56.135Z,1025.48
2016-10-10T04:39:21.677Z,1025.45
2016-10-10T04:39:47.220Z,1025.43
2016-10-10T04:40:12.805Z,1025.48
2016-10-10T04:40:38.379Z,1025.46
2016-10-10T04:41:03.956Z,1025.46
2016-10-10T04:41:29.514Z,1025.48
2016-10-10T04:41:55.098Z,1025.48
2016-10-10T04:42:20.735Z,1025.45
2016-10-10T04:42:46.297Z,1025.48
2016-10-10T04:43:11.871Z,1025.43
2016-10-10T04:43:37.429Z,1025.44
2016-10-10T04:44:03.004Z,1025.48
2016-10-10T04:44:28.621Z,1025.47
2016-10-10T04:44:54.136Z,1025.45
2016-10-10T04:45:19.702Z,1025.47
2016-10-10T04:45:45.275Z,1025.47
2016-10-10T04:46:10.847Z,1025.42
2016-10-10T04:46:36.408Z,1025.49
2016-10-10T04:47:01.950Z,1025.45
2016-10-10T04:47:27.521Z,1025.45
2016-10-10T04:47:53.230Z,1025.49
2016-10-10T04:48:18.807Z,1025.49
2016-10-10T04:48:44.589Z,1025.47
2016-10-10T04:49:09.998Z,1025.48
2016-10-10T04:49:35.560Z,1025.52
2016-10-10T04:50:01.122Z,1025.5
2016-10-10T04:50:26.674Z,1025.49
2016-10-10T04:50:52.216Z,1025.49
2016-10-10T04:51:17.787Z,1025.5
2016-10-10T04:51:43.372Z,1025.46
2016-10-10T04:52:08.928Z,1025.48
2016-10-10T04:52:34.500Z,1025.48
2016-10-10T04:53:00.196Z,1025.44
2016-10-10T04:53:25.760Z,1025.49
2016-10-10T04:53:51.330Z,1025.41
2016-10-10T04:54:16.895Z,1025.44
2016-10-10T04:54:42.471Z,1025.44
2016-10-10T04:55:08.039Z,1025.47
2016-10-10T04:55:33.621Z,1025.38
2016-10-10T04:55:59.186Z,1025.41
2016-10-10T04:56:24.816Z,1025.42
2016-10-10T04:56:50.383Z,1025.44
2016-10-10T04:57:15.973Z,1025.36
2016-10-10T04:57:41.531Z,1025.43
2016-10-10T04:58:07.231Z,1025.44
2016-10-10T04:58:32.805Z,1025.39
2016-10-10T04:58:58.489Z,1025.43
2016-10-10T04:59:24.048Z,1025.43
2016-10-10T04:59:49.599Z,1025.4
2016-10-10T05:00:15.169Z,1025.42
2016-10-10T05:00:40.738Z,1025.42
2016-10-10T05:01:06.308Z,1025.4
2016-10-10T05:01:31.876Z,1025.42
2016-10-10T05:01:57.448Z,1025.39
2016-10-10T05:02:23.024Z,1025.36
2016-10-10T05:02:48.575Z,1025.38
2016-10-10T05:03:14.182Z,1025.42
2016-10-10T05:03:39.717Z,1025.39
2016-10-10T05:04:05.293Z,1025.39
2016-10-10T05:04:30.843Z,1025.41
2016-10-10T05:04:56.405Z,1025.43
2016-10-10T05:05:21.953Z,1025.4
2016-10-10T05:05:47.496Z,1025.45
2016-10-10T05:06:13.038Z,1025.43
2016-10-10T05:06:38.603Z,1025.42
2016-10-10T05:07:04.176Z,1025.46
2016-10-10T05:07:29.719Z,1025.43
2016-10-10T05:07:55.268Z,1025.42
2016-10-10T05:08:20.819Z,1025.42
2016-10-10T05:08:46.346Z,1025.49
2016-10-10T05:09:12.135Z,1025.43
2016-10-10T05:09:37.690Z,1025.46
2016-10-10T05:10:03.363Z,1025.44
2016-10-10T05:10:28.901Z,1025.43
2016-10-10T05:10:54.426Z,1025.44
2016-10-10T05:11:20.002Z,1025.44
2016-10-10T05:11:45.540Z,1025.44
2016-10-10T05:12:11.119Z,1025.45
2016-10-10T05:12:36.734Z,1025.45
2016-10-10T05:13:02.290Z,1025.46
2016-10-10T05:13:27.861Z,1025.53
2016-10-10T05:13:53.512Z,1025.51
2016-10-10T05:14:19.080Z,1025.47
2016-10-10T05:15:32.501Z,1025.46
2016-10-10T05:15:58.061Z,1025.47
2016-10-10T05:16:23.618Z,1025.45
2016-10-10T05:16:49.191Z,1025.46
2016-10-10T05:17:14.731Z,1025.47
2016-10-10T05:17:40.274Z,1025.52
2016-10-10T05:18:05.848Z,1025.5
2016-10-10T05:18:31.408Z,1025.47
2016-10-10T05:18:57.055Z,1025.48
2016-10-10T05:19:22.597Z,1025.47
2016-10-10T05:19:48.155Z,1025.46
2016-10-10T05:20:13.885Z,1025.47
2016-10-10T05:20:39.439Z,1025.48
2016-10-10T05:21:04.993Z,1025.42
2016-10-10T05:21:30.687Z,1025.45
2016-10-10T05:21:56.250Z,1025.44
2016-10-10T05:22:21.812Z,1025.5
2016-10-10T05:22:47.373Z,1025.43
2016-10-10T05:23:13.121Z,1025.45
2016-10-10T05:23:38.671Z,1025.44
2016-10-10T05:24:04.311Z,1025.44
2016-10-10T05:24:29.954Z,1025.43
2016-10-10T05:24:55.524Z,1025.42
2016-10-10T05:25:21.111Z,1025.45
2016-10-10T05:25:46.747Z,1025.44
2016-10-10T05:26:12.330Z,1025.4
2016-10-10T05:26:37.925Z,1025.39
2016-10-10T05:27:03.514Z,1025.39
2016-10-10T05:27:29.100Z,1025.35
2016-10-10T05:27:54.663Z,1025.43
2016-10-10T05:28:20.233Z,1025.41
2016-10-10T05:28:45.896Z,1025.4
2016-10-10T05:29:11.452Z,1025.43
2016-10-10T05:29:37.027Z,1025.44
2016-10-10T05:30:02.564Z,1025.4
2016-10-10T05:30:28.229Z,1025.39
2016-10-10T05:30:53.780Z,1025.41
2016-10-10T05:31:19.329Z,1025.4
2016-10-10T05:31:44.895Z,1025.39
2016-10-10T05:32:10.462Z,1025.43
2016-10-10T05:32:36.067Z,1025.41
2016-10-10T05:33:01.618Z,1025.45
2016-10-10T05:33:27.191Z,1025.41
2016-10-10T05:33:52.751Z,1025.42
2016-10-10T05:34:18.389Z,1025.43
2016-10-10T05:34:43.961Z,1025.42
2016-10-10T05:35:09.514Z,1025.46
2016-10-10T05:35:35.084Z,1025.44
2016-10-10T05:36:00.701Z,1025.38
2016-10-10T05:36:26.272Z,1025.43
2016-10-10T05:36:51.807Z,1025.44
2016-10-10T05:37:17.506Z,1025.41
2016-10-10T05:37:43.058Z,1025.46
2016-10-10T05:38:08.620Z,1025.44
2016-10-10T05:38:34.239Z,1025.45
2016-10-10T05:38:59.895Z,1025.48
2016-10-10T05:39:25.466Z,1025.5
2016-10-10T05:39:51.052Z,1025.49
2016-10-10T05:40:16.591Z,1025.47
2016-10-10T05:40:42.158Z,1025.5
2016-10-10T05:41:07.709Z,1025.48
2016-10-10T05:41:33.250Z,1025.5
2016-10-10T05:41:58.815Z,1025.46
2016-10-10T05:42:24.447Z,1025.49
2016-10-10T05:42:50.012Z,1025.47
2016-10-10T05:43:15.572Z,1025.42
2016-10-10T05:43:41.218Z,1025.49
2016-10-10T05:44:06.775Z,1025.46
2016-10-10T05:45:25.341Z,1025.5
2016-10-10T05:45:50.914Z,1025.47
2016-10-10T05:46:16.581Z,1025.49
2016-10-10T05:46:42.201Z,1025.48
2016-10-10T05:47:07.754Z,1025.48
2016-10-10T05:47:33.401Z,1025.46
2016-10-10T05:47:58.997Z,1025.5
2016-10-10T05:48:24.557Z,1025.46
2016-10-10T05:48:50.135Z,1025.46
2016-10-10T05:49:15.766Z,1025.48
2016-10-10T05:49:41.303Z,1025.47
2016-10-10T05:50:06.859Z,1025.45
2016-10-10T05:50:32.451Z,1025.44
2016-10-10T05:50:57.998Z,1025.44
2016-10-10T05:51:23.580Z,1025.51
2016-10-10T05:51:49.148Z,1025.52
2016-10-10T05:52:14.718Z,1025.44
2016-10-10T05:52:40.269Z,1025.46
2016-10-10T05:53:05.833Z,1025.47
2016-10-10T05:53:31.388Z,1025.46
2016-10-10T05:53:56.951Z,1025.44
2016-10-10T05:54:22.497Z,1025.46
2016-10-10T05:54:48.065Z,1025.43
2016-10-10T05:55:13.670Z,1025.48
2016-10-10T05:55:39.211Z,1025.47
2016-10-10T05:56:04.791Z,1025.5
2016-10-10T05:56:30.503Z,1025.44
2016-10-10T05:56:56.196Z,1025.47
2016-10-10T05:57:21.623Z,1025.47
2016-10-10T05:57:47.184Z,1025.49
2016-10-10T05:58:12.773Z,1025.45
2016-10-10T05:58:38.348Z,1025.44
2016-10-10T05:59:03.914Z,1025.47
2016-10-10T05:59:29.482Z,1025.53
2016-10-10T05:59:55.037Z,1025.46
2016-10-10T06:01:08.619Z,1025.48
2016-10-10T06:01:34.230Z,1025.51
2016-10-10T06:01:59.868Z,1025.55
2016-10-10T06:02:25.442Z,1025.54
2016-10-10T06:03:28.640Z,1025.51
2016-10-10T06:03:54.235Z,1025.55
2016-10-10T06:04:19.910Z,1025.57
2016-10-10T06:04:45.474Z,1025.57
2016-10-10T06:05:11.025Z,1025.59
2016-10-10T06:05:36.626Z,1025.57
2016-10-10T06:06:02.202Z,1025.59
2016-10-10T06:06:27.857Z,1025.53
2016-10-10T06:06:53.428Z,1025.62
2016-10-10T06:07:19.077Z,1025.62
2016-10-10T06:07:44.628Z,1025.6
2016-10-10T06:08:10.178Z,1025.61
2016-10-10T06:08:35.833Z,1025.58
2016-10-10T06:09:01.405Z,1025.59
2016-10-10T06:09:26.977Z,1025.57
2016-10-10T06:09:52.538Z,1025.61
2016-10-10T06:10:18.092Z,1025.56
2016-10-10T06:10:43.729Z,1025.59
2016-10-10T06:11:09.473Z,1025.59
2016-10-10T06:11:35.005Z,1025.59
2016-10-10T06:12:00.567Z,1025.6
2016-10-10T06:12:26.135Z,1025.59
2016-10-10T06:12:51.690Z,1025.58
2016-10-10T06:13:17.252Z,1025.6
2016-10-10T06:13:42.902Z,1025.58
2016-10-10T06:14:08.455Z,1025.67
2016-10-10T06:14:34.009Z,1025.61
2016-10-10T06:14:59.684Z,1025.61
2016-10-10T06:15:25.266Z,1025.63
2016-10-10T06:15:50.845Z,1025.62
2016-10-10T06:16:16.414Z,1025.65
2016-10-10T06:16:42.050Z,1025.62
2016-10-10T06:17:07.624Z,1025.62
2016-10-10T06:17:33.181Z,1025.59
2016-10-10T06:17:58.741Z,1025.64
2016-10-10T06:18:24.296Z,1025.62
2016-10-10T06:18:49.862Z,1025.59
2016-10-10T06:19:15.439Z,1025.59
2016-10-10T06:19:41.000Z,1025.66
2016-10-10T06:20:06.632Z,1025.59
2016-10-10T06:20:32.216Z,1025.6
2016-10-10T06:20:57.790Z,1025.61
2016-10-10T06:21:23.311Z,1025.62
2016-10-10T06:21:49.002Z,1025.63
2016-10-10T06:22:14.540Z,1025.62
2016-10-10T06:22:40.083Z,1025.61
2016-10-10T06:23:05.634Z,1025.62
2016-10-10T06:23:31.198Z,1025.62
2016-10-10T06:23:56.775Z,1025.57
2016-10-10T06:24:22.340Z,1025.62
2016-10-10T06:24:47.911Z,1025.62
2016-10-10T06:25:13.463Z,1025.64
2016-10-10T06:25:39.021Z,1025.61
2016-10-10T06:26:04.607Z,1025.66
2016-10-10T06:26:30.161Z,1025.66
2016-10-10T06:26:55.722Z,1025.67
2016-10-10T06:27:21.395Z,1025.65
2016-10-10T06:27:46.975Z,1025.64
2016-10-10T06:28:12.525Z,1025.68
2016-10-10T06:28:38.100Z,1025.68
2016-10-10T06:29:03.696Z,1025.67
2016-10-10T06:29:29.317Z,1025.68
2016-10-10T06:29:54.885Z,1025.68
2016-10-10T06:30:20.551Z,1025.71
2016-10-10T06:30:46.203Z,1025.72
2016-10-10T06:31:11.789Z,1025.69
2016-10-10T06:31:37.396Z,1025.73
2016-10-10T06:32:02.945Z,1025.76
2016-10-10T06:32:28.528Z,1025.75
2016-10-10T06:33:26.653Z,1025.75
2016-10-10T06:33:52.214Z,1025.68
2016-10-10T06:34:17.816Z,1025.7
2016-10-10T06:34:43.471Z,1025.65
2016-10-10T06:35:09.030Z,1025.68
2016-10-10T06:35:34.592Z,1025.7
2016-10-10T06:36:00.168Z,1025.73
2016-10-10T06:36:25.738Z,1025.7
2016-10-10T06:36:51.428Z,1025.67
2016-10-10T06:37:17.044Z,1025.69
2016-10-10T06:37:42.587Z,1025.68
2016-10-10T06:38:08.159Z,1025.7
2016-10-10T06:39:26.832Z,1025.69
2016-10-10T06:39:52.386Z,1025.67
2016-10-10T06:40:17.951Z,1025.67
2016-10-10T06:40:43.532Z,1025.67
2016-10-10T06:41:09.098Z,1025.66
2016-10-10T06:41:34.820Z,1025.67
2016-10-10T06:42:00.409Z,1025.71
2016-10-10T06:42:25.965Z,1025.67
2016-10-10T06:42:51.529Z,1025.69
2016-10-10T06:43:17.098Z,1025.65
2016-10-10T06:43:42.703Z,1025.65
2016-10-10T06:44:08.330Z,1025.65
2016-10-10T06:44:33.865Z,1025.63
2016-10-10T06:44:59.394Z,1025.6
2016-10-10T06:45:24.998Z,1025.65
2016-10-10T06:46:05.870Z,1025.63
2016-10-10T06:46:31.418Z,1025.63
2016-10-10T06:46:57.057Z,1025.65
2016-10-10T06:47:22.766Z,1025.62
2016-10-10T06:47:48.359Z,1025.62
2016-10-10T06:48:13.924Z,1025.64
2016-10-10T06:48:39.489Z,1025.63
2016-10-10T06:49:05.104Z,1025.65
2016-10-10T06:49:30.671Z,1025.66
2016-10-10T06:49:56.231Z,1025.61
2016-10-10T06:50:21.933Z,1025.7
2016-10-10T06:50:47.527Z,1025.66
2016-10-10T06:51:13.088Z,1025.67
2016-10-10T06:52:32.017Z,1025.7
2016-10-10T06:52:57.595Z,1025.71
2016-10-10T06:53:23.146Z,1025.69
2016-10-10T06:53:48.717Z,1025.69
2016-10-10T06:54:14.307Z,1025.67
2016-10-10T06:54:39.887Z,1025.72
2016-10-10T06:55:05.675Z,1025.68
2016-10-10T06:55:31.224Z,1025.71
2016-10-10T06:55:56.828Z,1025.69
2016-10-10T06:56:22.521Z,1025.65
2016-10-10T06:56:48.096Z,1025.67
2016-10-10T06:57:13.648Z,1025.72
2016-10-10T06:57:39.210Z,1025.68
2016-10-10T06:58:04.884Z,1025.68
2016-10-10T06:58:30.612Z,1025.65
2016-10-10T06:58:56.188Z,1025.69
2016-10-10T06:59:21.807Z,1025.65
2016-10-10T06:59:47.380Z,1025.74
2016-10-10T07:00:13.041Z,1025.65
2016-10-10T07:00:39.354Z,1025.68
2016-10-10T07:01:04.935Z,1025.67
2016-10-10T07:01:30.473Z,1025.68
2016-10-10T07:01:56.070Z,1025.69
2016-10-10T07:02:21.712Z,1025.69
2016-10-10T07:02:47.306Z,1025.69
2016-10-10T07:03:12.969Z,1025.75
2016-10-10T07:03:38.521Z,1025.69
2016-10-10T07:04:04.068Z,1025.71
2016-10-10T07:04:29.626Z,1025.7
2016-10-10T07:04:55.242Z,1025.67
2016-10-10T07:05:20.813Z,1025.7
2016-10-10T07:05:46.391Z,1025.74
2016-10-10T07:06:11.935Z,1025.71
2016-10-10T07:06:37.634Z,1025.66
2016-10-10T07:07:03.238Z,1025.66
2016-10-10T07:07:28.801Z,1025.65
2016-10-10T07:07:54.530Z,1025.66
2016-10-10T07:08:20.106Z,1025.66
2016-10-10T07:08:45.683Z,1025.69
2016-10-10T07:09:11.242Z,1025.69
2016-10-10T07:09:36.836Z,1025.68
2016-10-10T07:10:02.372Z,1025.68
2016-10-10T07:10:27.939Z,1025.69
2016-10-10T07:10:53.501Z,1025.72
2016-10-10T07:11:19.054Z,1025.71
2016-10-10T07:11:44.683Z,1025.7
2016-10-10T07:12:10.237Z,1025.68
2016-10-10T07:12:35.807Z,1025.69
2016-10-10T07:13:01.367Z,1025.69
2016-10-10T07:13:26.941Z,1025.68
2016-10-10T07:13:52.515Z,1025.71
2016-10-10T07:14:18.100Z,1025.71
2016-10-10T07:14:43.671Z,1025.67
2016-10-10T07:15:09.248Z,1025.69
2016-10-10T07:15:34.822Z,1025.71
2016-10-10T07:16:00.420Z,1025.71
2016-10-10T07:16:25.984Z,1025.71
2016-10-10T07:16:51.629Z,1025.72
2016-10-10T07:17:17.198Z,1025.71
2016-10-10T07:17:42.797Z,1025.68
2016-10-10T07:18:08.347Z,1025.71
2016-10-10T07:18:33.918Z,1025.7
2016-10-10T07:18:59.499Z,1025.72
2016-10-10T07:19:25.052Z,1025.72
2016-10-10T07:19:50.626Z,1025.7
2016-10-10T07:20:16.335Z,1025.72
2016-10-10T07:20:41.908Z,1025.74
2016-10-10T07:21:07.490Z,1025.72
2016-10-10T07:21:33.038Z,1025.73
2016-10-10T07:21:58.589Z,1025.7
2016-10-10T07:22:24.151Z,1025.72
2016-10-10T07:22:49.727Z,1025.71
2016-10-10T07:23:15.313Z,1025.71
2016-10-10T07:23:40.898Z,1025.72
2016-10-10T07:24:06.470Z,1025.72
2016-10-10T07:24:32.030Z,1025.67
2016-10-10T07:24:57.618Z,1025.68
2016-10-10T07:25:23.199Z,1025.73
2016-10-10T07:25:48.812Z,1025.72
2016-10-10T07:26:14.393Z,1025.75
2016-10-10T07:26:39.952Z,1025.77
2016-10-10T07:27:05.542Z,1025.72
2016-10-10T07:27:31.194Z,1025.72
2016-10-10T07:28:05.813Z,1025.74
2016-10-10T07:28:31.373Z,1025.77
2016-10-10T07:28:56.970Z,1025.73
2016-10-10T07:29:22.535Z,1025.69
2016-10-10T07:29:48.119Z,1025.73
2016-10-10T07:30:13.696Z,1025.71
2016-10-10T07:30:39.255Z,1025.72
2016-10-10T07:31:04.831Z,1025.69
2016-10-10T07:31:30.509Z,1025.68
2016-10-10T07:31:56.094Z,1025.7
2016-10-10T07:32:21.641Z,1025.69
2016-10-10T07:32:47.248Z,1025.74
2016-10-10T07:33:12.913Z,1025.73
2016-10-10T07:33:38.567Z,1025.68
2016-10-10T07:34:04.151Z,1025.7
2016-10-10T07:34:29.847Z,1025.74
2016-10-10T07:34:55.492Z,1025.71
2016-10-10T07:35:21.048Z,1025.73
2016-10-10T07:35:46.721Z,1025.71
2016-10-10T07:36:12.960Z,1025.69
2016-10-10T07:36:38.619Z,1025.75
2016-10-10T07:37:04.703Z,1025.75
2016-10-10T07:37:30.317Z,1025.77
2016-10-10T07:37:56.343Z,1025.77
2016-10-10T07:38:22.104Z,1025.75
2016-10-10T07:38:47.812Z,1025.79
2016-10-10T07:39:13.887Z,1025.77
2016-10-10T07:40:27.423Z,1025.81
2016-10-10T07:40:53.138Z,1025.78
2016-10-10T07:41:18.720Z,1025.8
2016-10-10T07:41:44.271Z,1025.82
2016-10-10T07:42:09.924Z,1025.81
2016-10-10T07:42:35.471Z,1025.82
2016-10-10T07:43:01.688Z,1025.82
2016-10-10T07:43:59.927Z,1025.81
2016-10-10T07:44:25.451Z,1025.79
2016-10-10T07:44:51.092Z,1025.8
2016-10-10T07:45:16.866Z,1025.78
2016-10-10T07:45:42.471Z,1025.8
2016-10-10T07:46:08.129Z,1025.8
2016-10-10T07:46:33.704Z,1025.8
2016-10-10T07:46:59.324Z,1025.8
2016-10-10T07:47:24.872Z,1025.79
2016-10-10T07:47:50.439Z,1025.81
2016-10-10T07:48:16.018Z,1025.81
2016-10-10T07:48:41.576Z,1025.8
2016-10-10T07:49:07.185Z,1025.81
2016-10-10T07:49:32.767Z,1025.83
2016-10-10T07:49:58.336Z,1025.83
2016-10-10T07:50:23.901Z,1025.8
2016-10-10T07:50:49.565Z,1025.81
2016-10-10T07:51:15.132Z,1025.81
2016-10-10T07:51:40.692Z,1025.82
2016-10-10T07:52:06.262Z,1025.81
2016-10-10T07:52:31.965Z,1025.78
2016-10-10T07:52:57.553Z,1025.79
2016-10-10T07:53:23.109Z,1025.82
2016-10-10T07:53:48.761Z,1025.83
2016-10-10T07:54:14.335Z,1025.84
2016-10-10T07:54:39.900Z,1025.87
2016-10-10T07:55:05.487Z,1025.83
2016-10-10T07:55:31.040Z,1025.83
2016-10-10T07:55:56.607Z,1025.84
2016-10-10T07:56:22.161Z,1025.83
2016-10-10T07:56:47.725Z,1025.86
2016-10-10T07:57:13.282Z,1025.83
2016-10-10T07:57:38.851Z,1025.79
2016-10-10T07:58:04.417Z,1025.84
2016-10-10T07:58:29.977Z,1025.86
2016-10-10T07:58:55.658Z,1025.84
2016-10-10T07:59:21.252Z,1025.89
2016-10-10T07:59:46.842Z,1025.88
2016-10-10T08:00:12.450Z,1025.85
2016-10-10T08:00:38.030Z,1025.87
2016-10-10T08:01:03.597Z,1025.88
2016-10-10T08:01:29.157Z,1025.85
2016-10-10T08:01:54.721Z,1025.84
2016-10-10T08:02:20.276Z,1025.87
2016-10-10T08:02:45.873Z,1025.87
2016-10-10T08:03:11.433Z,1025.86
2016-10-10T08:03:36.987Z,1025.9
2016-10-10T08:04:02.567Z,1025.88
2016-10-10T08:04:28.143Z,1025.86
2016-10-10T08:04:53.721Z,1025.85
2016-10-10T08:05:19.348Z,1025.85
2016-10-10T08:05:44.919Z,1025.83
2016-10-10T08:06:10.466Z,1025.85
2016-10-10T08:06:36.037Z,1025.85
2016-10-10T08:07:01.599Z,1025.84
2016-10-10T08:07:27.175Z,1025.82
2016-10-10T08:07:52.836Z,1025.81
2016-10-10T08:08:18.389Z,1025.87
2016-10-10T08:08:43.951Z,1025.84
2016-10-10T08:09:09.507Z,1025.86
2016-10-10T08:09:35.050Z,1025.81
2016-10-10T08:10:00.612Z,1025.84
2016-10-10T08:10:26.189Z,1025.82
2016-10-10T08:10:51.758Z,1025.85
2016-10-10T08:11:17.449Z,1025.85
2016-10-10T08:11:43.060Z,1025.83
2016-10-10T08:12:08.630Z,1025.89
2016-10-10T08:12:34.199Z,1025.87
2016-10-10T08:12:59.744Z,1025.83
2016-10-10T08:13:25.322Z,1025.88
2016-10-10T08:13:50.912Z,1025.86
2016-10-10T08:14:16.470Z,1025.86
2016-10-10T08:14:42.045Z,1025.84
2016-10-10T08:15:07.635Z,1025.85
2016-10-10T08:15:33.187Z,1025.82
2016-10-10T08:15:58.754Z,1025.87
2016-10-10T08:16:24.386Z,1025.85
2016-10-10T08:16:50.008Z,1025.86
2016-10-10T08:17:15.565Z,1025.87
2016-10-10T08:17:41.244Z,1025.9
2016-10-10T08:18:06.824Z,1025.8
2016-10-10T08:18:32.426Z,1025.84
2016-10-10T08:18:57.997Z,1025.83
2016-10-10T08:19:23.589Z,1025.88
2016-10-10T08:19:49.167Z,1025.84
2016-10-10T08:20:14.728Z,1025.86
2016-10-10T08:20:40.344Z,1025.86
2016-10-10T08:21:05.973Z,1025.86
2016-10-10T08:21:31.546Z,1025.84
2016-10-10T08:21:57.099Z,1025.88
2016-10-10T08:22:22.647Z,1025.87
2016-10-10T08:22:48.216Z,1025.86
2016-10-10T08:23:13.770Z,1025.81
2016-10-10T08:23:39.328Z,1025.85
2016-10-10T08:24:04.911Z,1025.89